Time;durP1;ratioP1;P1;durP2;ratioP2;P2;SDS_P1;SDS_P2;PMS_P1;PMS_P2;Temp;Humidity;BMP_temperature;BMP_pressure;BME280_temperature;BME280_humidity;BME280_pressure;Samples;Min_cycle;Max_cycle;Signal;HPM_P1;HPM_P2
2023/05/14 00:00:09;;;;;;;1.47;0.93;;;;;;;11.47;76.04;100027.19;5134167;28;20039;-63
2023/05/14 00:02:38;;;;;;;0.65;0.65;;;;;;;11.43;75.68;100022.06;5134524;28;20145;-63
2023/05/14 00:05:08;;;;;;;1.87;1.77;;;;;;;11.47;75.77;100011.84;5134194;28;20039;-64
2023/05/14 00:07:37;;;;;;;1.02;0.98;;;;;;;11.46;75.80;100010.97;5134482;28;20275;-63
2023/05/14 00:10:08;;;;;;;1.30;1.20;;;;;;;11.37;75.77;100016.91;5134180;28;20040;-63
2023/05/14 00:12:37;;;;;;;1.73;1.13;;;;;;;11.32;75.80;100022.88;5134153;28;20078;-63
2023/05/14 00:15:07;;;;;;;0.80;0.80;;;;;;;11.29;76.07;100028.84;5134485;28;20044;-63
2023/05/14 00:17:37;;;;;;;1.17;1.13;;;;;;;11.34;75.85;100024.59;5134422;28;20047;-63
2023/05/14 00:20:07;;;;;;;0.63;0.63;;;;;;;11.33;76.39;100014.34;5134302;28;20138;-63
2023/05/14 00:22:36;;;;;;;;;;;;;;;11.30;76.26;100011.81;5134431;28;20062;-62
2023/05/14 00:25:08;;;;;;;0.98;0.93;;;;;;;11.29;75.77;100010.09;5133888;28;20360;-63
2023/05/14 00:27:37;;;;;;;1.00;0.90;;;;;;;11.25;75.83;100005.84;5134008;28;20043;-63
2023/05/14 00:30:07;;;;;;;0.70;0.70;;;;;;;11.23;75.92;99997.31;5115984;28;20036;-63
2023/05/14 00:32:36;;;;;;;1.08;0.98;;;;;;;11.28;76.04;100005.81;5115627;28;20074;-63
2023/05/14 00:35:06;;;;;;;1.17;1.08;;;;;;;11.24;75.95;100004.13;5133881;28;20123;-64
2023/05/14 00:37:35;;;;;;;;;;;;;;;11.25;76.16;100005.84;5134874;27;20446;-63
2023/05/14 00:40:05;;;;;;;1.77;1.60;;;;;;;11.18;76.41;99991.34;5137960;27;19970;-64
2023/05/14 00:42:36;;;;;;;0.50;0.50;;;;;;;11.24;76.15;100004.13;5137849;27;20035;-63
2023/05/14 00:45:06;;;;;;;0.63;0.63;;;;;;;11.17;76.14;100002.41;5119507;27;20533;-62
2023/05/14 00:47:35;;;;;;;0.90;0.90;;;;;;;11.09;76.57;100009.19;5119200;27;20077;-64
2023/05/14 00:50:05;;;;;;;1.10;1.02;;;;;;;11.07;76.53;100000.69;5137445;27;20497;-64
2023/05/14 00:52:34;;;;;;;0.85;0.85;;;;;;;11.04;76.38;100005.78;5119138;27;20105;-62
2023/05/14 00:55:05;;;;;;;2.27;1.47;;;;;;;10.93;76.51;100007.47;5137297;27;20043;-63
2023/05/14 00:57:36;;;;;;;1.08;0.98;;;;;;;10.96;76.99;99997.25;5119095;27;20267;-62
2023/05/14 01:00:07;;;;;;;0.85;0.75;;;;;;;10.99;76.91;99997.28;5137357;27;20043;-63
2023/05/14 01:02:36;;;;;;;0.65;0.65;;;;;;;11.01;77.25;99995.56;5137431;27;20500;-63
2023/05/14 01:05:06;;;;;;;0.52;0.52;;;;;;;11.04;77.08;99993.00;5119061;27;20481;-63
2023/05/14 01:07:49;;;;;;;0.70;0.70;;;;;;;11.01;76.87;99986.22;5137369;27;20500;-64
2023/05/14 01:10:27;;;;;;;1.48;1.38;;;;;;;10.95;77.13;99993.00;5119074;27;20078;-64
2023/05/14 01:13:04;;;;;;;1.17;0.93;;;;;;;10.98;76.94;99990.44;5137235;27;20408;-63
2023/05/14 01:15:36;;;;;;;1.20;0.90;;;;;;;10.99;76.98;99987.06;5136932;27;20043;-63
2023/05/14 01:18:08;;;;;;;0.60;0.60;;;;;;;11.00;77.07;99978.53;5137231;27;20039;-63
2023/05/14 01:20:37;;;;;;;2.60;1.73;;;;;;;10.94;76.86;99979.34;5136844;27;20077;-63
2023/05/14 01:23:10;;;;;;;0.82;0.82;;;;;;;10.76;77.43;99977.63;5136759;27;20054;-63
2023/05/14 01:25:39;;;;;;;1.33;1.23;;;;;;;10.73;77.45;99979.31;5118518;27;20070;-64
2023/05/14 01:28:16;;;;;;;5.18;1.15;;;;;;;10.61;77.91;99975.00;5136710;27;20081;-63
2023/05/14 01:31:08;;;;;;;0.60;0.60;;;;;;;10.60;77.67;99973.31;5136682;27;20047;-63
2023/05/14 01:33:38;;;;;;;1.52;1.13;;;;;;;10.51;78.59;99963.06;5118607;27;20035;-64
2023/05/14 01:36:07;;;;;;;2.25;1.00;;;;;;;10.56;78.26;99968.19;5136432;27;20519;-65
2023/05/14 01:38:38;;;;;;;0.80;0.80;;;;;;;10.60;78.65;99965.66;5136780;27;20040;-64
2023/05/14 01:41:07;;;;;;;1.75;1.52;;;;;;;10.68;78.36;99965.66;5118233;27;20492;-64
2023/05/14 01:43:37;;;;;;;0.55;0.55;;;;;;;10.69;78.77;99965.69;5136619;27;20047;-63
2023/05/14 01:46:06;;;;;;;0.38;0.38;;;;;;;10.71;78.66;99966.53;5136297;27;20057;-63
2023/05/14 01:48:36;;;;;;;0.98;0.93;;;;;;;10.67;78.32;99961.44;5136287;27;20075;-63
2023/05/14 01:51:05;;;;;;;1.23;1.13;;;;;;;10.67;78.40;99964.84;5135774;27;20475;-63
2023/05/14 01:53:34;;;;;;;1.30;1.20;;;;;;;10.70;78.65;99954.63;5136441;27;20043;-63
2023/05/14 01:56:05;;;;;;;0.90;0.90;;;;;;;10.73;79.01;99951.22;5136191;27;20051;-62
2023/05/14 01:58:34;;;;;;;1.27;1.17;;;;;;;10.75;78.79;99955.50;5117934;27;20047;-64
2023/05/14 02:01:04;;;;;;;0.73;0.73;;;;;;;10.75;78.67;99952.94;5136096;27;20049;-63
2023/05/14 02:03:33;;;;;;;4.88;0.98;;;;;;;10.78;78.58;99952.09;5117597;27;20050;-63
2023/05/14 02:06:02;;;;;;;1.15;1.05;;;;;;;10.82;78.26;99953.81;5135932;27;20067;-63
2023/05/14 02:08:31;;;;;;;0.65;0.65;;;;;;;10.78;78.52;99952.94;5135871;27;20119;-63
2023/05/14 02:11:00;;;;;;;1.33;1.23;;;;;;;10.68;78.42;99956.31;5135912;27;20050;-63
2023/05/14 02:13:30;;;;;;;1.63;1.53;;;;;;;10.63;78.37;99958.00;5135672;27;20047;-63
2023/05/14 02:15:59;;;;;;;0.52;0.52;;;;;;;10.63;78.70;99958.00;5136117;27;20043;-64
2023/05/14 02:18:28;;;;;;;0.40;0.40;;;;;;;10.65;78.93;99965.69;5135661;27;20078;-63
2023/05/14 02:20:57;;;;;;;1.35;1.27;;;;;;;10.63;78.92;99962.25;5117609;27;20455;-63
2023/05/14 02:23:26;;;;;;;0.55;0.55;;;;;;;10.61;79.04;99959.69;5117349;27;20043;-63
2023/05/14 02:26:09;;;;;;;1.88;1.38;;;;;;;10.60;78.68;99952.91;5117213;27;20045;-63
2023/05/14 02:28:39;;;;;;;0.68;0.68;;;;;;;10.51;78.76;99937.53;5135842;27;20065;-63
2023/05/14 02:31:08;;;;;;;0.43;0.43;;;;;;;10.58;79.19;99941.00;5135567;27;20397;-63
2023/05/14 02:33:37;;;;;;;0.60;0.60;;;;;;;10.58;79.13;99933.31;5117455;27;20035;-63
2023/05/14 02:36:07;;;;;;;0.53;0.53;;;;;;;10.58;78.81;99931.59;5135285;27;20047;-63
2023/05/14 02:38:36;;;;;;;0.77;0.57;;;;;;;10.60;78.72;99932.50;5135984;27;20279;-64
2023/05/14 02:41:05;;;;;;;0.77;0.77;;;;;;;10.61;78.76;99923.97;5135262;27;20047;-64
2023/05/14 02:43:34;;;;;;;9.52;1.70;;;;;;;10.58;79.09;99929.06;5135158;27;20562;-64
2023/05/14 02:46:04;;;;;;;0.30;0.30;;;;;;;10.54;79.28;99927.34;5117079;27;20529;-63
2023/05/14 02:48:33;;;;;;;0.80;0.73;;;;;;;10.55;79.03;99921.41;5117490;27;20054;-63
2023/05/14 02:51:02;;;;;;;0.75;0.75;;;;;;;10.58;78.74;99923.94;5116795;27;20031;-63
2023/05/14 02:53:31;;;;;;;0.90;0.88;;;;;;;10.59;79.48;99920.56;5116854;27;20061;-64
2023/05/14 02:56:00;;;;;;;1.40;1.30;;;;;;;10.62;78.68;99918.03;5135258;27;20065;-63
2023/05/14 02:58:29;;;;;;;0.87;0.87;;;;;;;10.62;78.76;99909.50;5116675;27;20036;-64
2023/05/14 03:00:58;;;;;;;2.28;1.27;;;;;;;10.59;78.32;99910.34;5116423;27;20061;-64
2023/05/14 03:03:29;;;;;;;0.60;0.60;;;;;;;10.58;78.61;99908.63;5116909;27;20031;-64
2023/05/14 03:05:58;;;;;;;0.95;0.85;;;;;;;10.54;78.60;99909.47;5116457;27;20054;-63
2023/05/14 03:08:27;;;;;;;0.60;0.60;;;;;;;10.56;78.35;99915.44;5116515;27;20092;-63
2023/05/14 03:10:56;;;;;;;0.83;0.83;;;;;;;10.59;78.80;99920.56;5135027;27;20047;-63
2023/05/14 03:13:26;;;;;;;1.13;0.95;;;;;;;10.60;78.23;99919.72;5135051;27;20039;-63
2023/05/14 03:15:55;;;;;;;1.02;1.00;;;;;;;10.56;78.63;99912.88;5135321;27;20497;-63
2023/05/14 03:18:24;;;;;;;0.65;0.60;;;;;;;10.56;78.33;99915.44;5134705;27;20047;-63
2023/05/14 03:20:54;;;;;;;1.07;0.97;;;;;;;10.49;78.28;99913.72;5134640;27;20070;-62
2023/05/14 03:23:23;;;;;;;1.13;1.05;;;;;;;10.47;78.99;99910.31;5117000;28;20051;-64
2023/05/14 03:25:52;;;;;;;0.38;0.38;;;;;;;10.47;78.83;99915.41;5134544;27;20061;-63
2023/05/14 03:28:21;;;;;;;0.60;0.60;;;;;;;10.50;79.04;99915.44;5134615;27;20051;-63
2023/05/14 03:30:50;;;;;;;1.25;1.15;;;;;;;10.51;78.37;99921.41;5116295;28;20035;-63
2023/05/14 03:33:20;;;;;;;0.75;0.50;;;;;;;10.52;78.89;99913.75;5134567;28;20043;-63
2023/05/14 03:35:48;;;;;;;0.30;0.30;;;;;;;10.52;78.36;99921.38;5134717;28;20578;-64
2023/05/14 03:38:18;;;;;;;0.70;0.70;;;;;;;10.53;78.99;99925.63;5134330;28;20059;-63
2023/05/14 03:40:48;;;;;;;0.77;0.77;;;;;;;10.54;78.27;99929.03;5134444;28;20053;-63
2023/05/14 03:43:16;;;;;;;0.67;0.67;;;;;;;10.59;78.68;99933.31;5116446;28;20087;-62
2023/05/14 03:45:45;;;;;;;0.50;0.50;;;;;;;10.61;78.37;99929.06;5116403;28;20620;-63
2023/05/14 03:48:17;;;;;;;0.70;0.70;;;;;;;10.67;78.27;99931.66;5134255;28;20054;-63
2023/05/14 03:50:46;;;;;;;1.08;1.00;;;;;;;10.73;78.45;99929.09;5134350;28;20066;-63
2023/05/14 03:53:15;;;;;;;0.80;0.80;;;;;;;10.78;78.34;99929.97;5134636;28;20431;-62
2023/05/14 03:55:47;;;;;;;1.30;1.17;;;;;;;10.81;78.04;99925.72;5116044;28;20104;-63
2023/05/14 03:58:17;;;;;;;0.88;0.77;;;;;;;10.86;78.09;99926.59;5116093;28;20142;-63
2023/05/14 04:00:47;;;;;;;1.75;1.35;;;;;;;10.96;77.92;99925.75;5115999;28;20492;-63
2023/05/14 04:03:16;;;;;;;0.60;0.60;;;;;;;11.02;77.88;99915.53;5134252;28;20385;-63
2023/05/14 04:05:45;;;;;;;1.08;0.98;;;;;;;11.02;78.02;99916.41;5134201;28;20042;-64
2023/05/14 04:08:14;;;;;;;0.40;0.40;;;;;;;11.01;77.75;99916.41;5134375;28;20047;-63
2023/05/14 04:10:43;;;;;;;1.33;1.23;;;;;;;11.04;77.31;99914.69;5134210;28;20088;-63
2023/05/14 04:13:13;;;;;;;0.40;0.40;;;;;;;11.13;77.02;99913.88;5136253;27;20471;-63
2023/05/14 04:15:42;;;;;;;1.25;1.00;;;;;;;11.23;76.76;99916.41;5119897;27;20050;-63
2023/05/14 04:18:11;;;;;;;0.53;0.53;;;;;;;11.32;76.85;99920.69;5120042;27;20039;-63
2023/05/14 04:20:40;;;;;;;0.90;0.87;;;;;;;11.38;77.12;99915.56;5119940;27;20035;-63
2023/05/14 04:23:09;;;;;;;1.58;1.48;;;;;;;11.42;76.73;99904.50;5119994;27;20035;-63
2023/05/14 04:25:38;;;;;;;0.75;0.73;;;;;;;11.42;76.73;99902.78;5137949;27;20508;-63
2023/05/14 04:28:06;;;;;;;2.17;1.40;;;;;;;11.38;76.41;99897.66;5138119;27;20443;-63
2023/05/14 04:30:37;;;;;;;0.63;0.63;;;;;;;11.40;76.10;99908.72;5137895;27;20035;-63
2023/05/14 04:33:05;;;;;;;0.98;0.90;;;;;;;11.48;76.12;99907.03;5137862;27;20054;-62
2023/05/14 04:35:34;;;;;;;2.70;1.73;;;;;;;11.55;75.99;99902.75;5138030;27;20050;-63
2023/05/14 04:38:03;;;;;;;0.77;0.77;;;;;;;11.60;75.92;99907.03;5137403;27;20572;-63
2023/05/14 04:40:32;;;;;;;0.60;0.60;;;;;;;11.63;75.83;99901.91;5137685;27;20096;-64
2023/05/14 04:43:01;;;;;;;0.40;0.40;;;;;;;11.69;75.97;99901.06;5137618;27;20039;-64
2023/05/14 04:45:30;;;;;;;0.70;0.70;;;;;;;11.72;75.67;99894.25;5137642;27;20355;-64
2023/05/14 04:48:06;;;;;;;0.85;0.85;;;;;;;11.74;75.73;99889.13;5137464;27;20126;-64
2023/05/14 04:50:35;;;;;;;1.77;1.25;;;;;;;11.76;75.88;99893.38;5137431;27;20068;-64
2023/05/14 04:53:04;;;;;;;1.38;1.27;;;;;;;11.76;75.66;99893.38;5137439;27;20082;-63
2023/05/14 04:55:33;;;;;;;0.93;0.93;;;;;;;11.80;75.76;99887.44;5137532;27;20113;-63
2023/05/14 04:58:02;;;;;;;0.85;0.85;;;;;;;11.84;75.62;99889.13;5137372;27;20088;-63
2023/05/14 05:00:32;;;;;;;0.80;0.80;;;;;;;11.79;75.62;99879.75;5137225;27;20035;-63
2023/05/14 05:03:01;;;;;;;1.67;1.58;;;;;;;11.79;75.75;99883.16;5137528;27;20095;-63
2023/05/14 05:05:31;;;;;;;4.97;1.33;;;;;;;11.76;75.50;99888.28;5137148;27;20572;-63
2023/05/14 05:08:01;;;;;;;0.77;0.77;;;;;;;11.68;75.25;99874.66;5137462;27;20049;-63
2023/05/14 05:10:29;;;;;;;0.95;0.77;;;;;;;11.74;75.23;99886.56;5137408;27;20135;-63
2023/05/14 05:12:58;;;;;;;0.80;0.80;;;;;;;11.73;74.92;99884.88;5137358;27;20066;-63
2023/05/14 05:15:27;;;;;;;0.45;0.45;;;;;;;11.79;74.94;99879.75;5137597;27;20060;-64
2023/05/14 05:17:56;;;;;;;1.10;1.05;;;;;;;11.78;74.53;99876.31;5137000;27;20042;-63
2023/05/14 05:20:26;;;;;;;0.70;0.70;;;;;;;11.77;74.23;99866.97;5136879;27;20043;-62
2023/05/14 05:22:58;;;;;;;0.60;0.60;;;;;;;11.80;73.96;99879.75;5136908;27;20047;-62
2023/05/14 05:25:27;;;;;;;0.82;0.82;;;;;;;11.83;73.76;99879.72;5136690;27;20130;-63
2023/05/14 05:27:56;;;;;;;1.30;1.20;;;;;;;11.85;73.58;99875.44;5136713;27;20100;-62
2023/05/14 05:30:25;;;;;;;0.60;0.60;;;;;;;11.85;73.65;99882.31;5136961;27;20489;-62
2023/05/14 05:32:55;;;;;;;0.40;0.40;;;;;;;11.87;73.64;99881.44;5136964;27;20504;-63
2023/05/14 05:35:25;;;;;;;1.30;1.05;;;;;;;11.89;73.52;99889.09;5136706;27;20062;-63
2023/05/14 05:37:53;;;;;;;1.88;1.23;;;;;;;11.84;73.76;99886.56;5136499;27;20047;-63
2023/05/14 05:40:24;;;;;;;0.80;0.80;;;;;;;11.91;73.73;99888.25;5136519;27;20051;-62
2023/05/14 05:42:53;;;;;;;1.17;1.08;;;;;;;11.90;73.51;99880.59;5136525;27;20058;-62
2023/05/14 05:45:22;;;;;;;0.68;0.68;;;;;;;11.87;73.29;99871.22;5136716;27;20031;-63
2023/05/14 05:47:51;;;;;;;1.42;1.33;;;;;;;11.92;73.47;99874.63;5136161;27;20047;-62
2023/05/14 05:50:19;;;;;;;0.83;0.83;;;;;;;11.97;73.08;99877.97;5135841;27;20479;-64
2023/05/14 05:52:49;;;;;;;0.70;0.70;;;;;;;11.97;73.04;99883.09;5136319;27;20035;-64
2023/05/14 05:55:18;;;;;;;0.88;0.70;;;;;;;12.03;73.29;99883.09;5136439;27;20085;-64
2023/05/14 05:57:48;;;;;;;0.50;0.50;;;;;;;12.09;73.17;99882.22;5136147;27;20074;-62
2023/05/14 06:00:17;;;;;;;0.82;0.82;;;;;;;12.14;73.38;99882.22;5136585;27;20108;-62
2023/05/14 06:02:46;;;;;;;0.55;0.55;;;;;;;12.16;73.27;99885.59;5136108;27;20493;-64
2023/05/14 06:05:15;;;;;;;0.82;0.82;;;;;;;12.18;73.18;99881.31;5135741;27;20051;-62
2023/05/14 06:07:44;;;;;;;6.90;1.13;;;;;;;12.21;73.46;99889.00;5135252;27;20137;-63
2023/05/14 06:10:13;;;;;;;1.35;1.23;;;;;;;12.20;73.50;99890.69;5135757;27;20554;-62
2023/05/14 06:12:42;;;;;;;2.13;2.00;;;;;;;12.18;73.55;99881.31;5136186;27;20050;-62
2023/05/14 06:15:12;;;;;;;2.83;0.88;;;;;;;12.18;73.53;99881.31;5135323;27;20105;-62
2023/05/14 06:17:41;;;;;;;0.47;0.47;;;;;;;12.17;73.79;99879.59;5135144;27;20051;-63
2023/05/14 06:20:11;;;;;;;1.98;1.08;;;;;;;12.12;73.66;99882.19;5135160;27;20047;-62
2023/05/14 06:22:39;;;;;;;0.57;0.55;;;;;;;12.08;74.17;99878.81;5135340;27;20126;-62
2023/05/14 06:25:09;;;;;;;0.77;0.73;;;;;;;12.07;74.71;99882.22;5135284;27;20477;-63
2023/05/14 06:27:38;;;;;;;1.30;1.20;;;;;;;12.05;74.97;99876.25;5135473;27;20066;-62
2023/05/14 06:30:08;;;;;;;0.63;0.63;;;;;;;12.02;75.59;99878.81;5135542;27;20493;-62
2023/05/14 06:32:38;;;;;;;1.80;1.63;;;;;;;12.03;76.01;99877.97;5135653;27;20088;-63
2023/05/14 06:35:08;;;;;;;1.25;1.13;;;;;;;12.05;76.54;99871.13;5135188;27;20400;-62
2023/05/14 06:37:37;;;;;;;0.60;0.60;;;;;;;12.06;76.74;99862.63;5135124;27;20051;-62
2023/05/14 06:40:07;;;;;;;0.65;0.65;;;;;;;12.06;77.09;99867.75;5135591;27;20450;-63
2023/05/14 06:42:35;;;;;;;0.63;0.63;;;;;;;12.00;77.39;99857.50;5135654;27;20177;-63
2023/05/14 06:45:06;;;;;;;0.77;0.77;;;;;;;11.96;77.72;99855.81;5135411;27;20493;-62
2023/05/14 06:47:35;;;;;;;0.85;0.85;;;;;;;11.93;77.75;99863.50;5135575;27;20086;-62
2023/05/14 06:50:06;;;;;;;1.40;1.30;;;;;;;11.93;77.78;99858.38;5135016;27;20053;-63
2023/05/14 06:52:38;;;;;;;1.35;1.02;;;;;;;11.92;77.57;99859.25;5135412;27;20042;-63
2023/05/14 06:55:08;;;;;;;1.33;0.95;;;;;;;11.94;77.74;99860.09;5116978;27;20087;-62
2023/05/14 06:57:37;;;;;;;0.80;0.80;;;;;;;11.99;77.21;99863.50;5135237;27;20054;-62
2023/05/14 07:00:09;;;;;;;1.13;1.02;;;;;;;12.02;77.72;99854.97;5134963;27;20043;-62
2023/05/14 07:02:38;;;;;;;1.33;1.23;;;;;;;12.07;77.56;99858.31;5135147;27;20042;-63
2023/05/14 07:05:09;;;;;;;0.43;0.43;;;;;;;12.12;77.77;99853.22;5134853;27;20142;-62
2023/05/14 07:07:37;;;;;;;1.10;1.00;;;;;;;12.10;78.00;99848.94;5134868;27;20046;-63
2023/05/14 07:10:07;;;;;;;1.70;1.27;;;;;;;12.10;78.11;99843.84;5134781;27;20035;-63
2023/05/14 07:12:36;;;;;;;17.35;2.03;;;;;;;12.07;78.10;99843.84;5135085;27;20085;-63
2023/05/14 07:15:06;;;;;;;0.88;0.85;;;;;;;12.17;78.12;99841.22;5135018;27;20143;-62
2023/05/14 07:17:35;;;;;;;0.70;0.70;;;;;;;12.19;77.76;99848.03;5135028;27;20046;-63
2023/05/14 07:20:04;;;;;;;1.63;1.40;;;;;;;12.21;77.69;99850.63;5134806;27;20039;-62
2023/05/14 07:22:34;;;;;;;1.55;1.25;;;;;;;12.20;77.66;99846.34;5134623;27;20043;-63
2023/05/14 07:25:04;;;;;;;3.25;1.67;;;;;;;12.22;77.74;99844.63;5134651;27;20092;-62
2023/05/14 07:27:32;;;;;;;0.95;0.88;;;;;;;12.18;77.69;99837.81;5134724;27;20365;-63
2023/05/14 07:30:01;;;;;;;1.48;1.38;;;;;;;12.16;77.64;99837.00;5134871;27;20104;-62
2023/05/14 07:32:30;;;;;;;1.08;0.85;;;;;;;12.18;77.68;99838.69;5134962;27;20062;-62
2023/05/14 07:34:59;;;;;;;0.95;0.90;;;;;;;12.24;77.90;99840.38;5134853;28;20114;-63
2023/05/14 07:37:27;;;;;;;2.50;1.25;;;;;;;12.28;78.02;99836.94;5134241;28;20043;-62
2023/05/14 07:39:58;;;;;;;0.63;0.63;;;;;;;12.30;78.52;99842.88;5134486;28;20077;-63
2023/05/14 07:42:27;;;;;;;0.60;0.60;;;;;;;12.30;78.48;99836.06;5133774;28;20047;-62
2023/05/14 07:45:04;;;;;;;10.10;1.52;;;;;;;12.33;78.43;99840.31;5132608;28;20047;-62
2023/05/14 07:47:33;;;;;;;0.80;0.80;;;;;;;12.36;78.25;99830.03;5116881;27;20069;-63
2023/05/14 07:50:03;;;;;;;2.50;0.90;;;;;;;12.34;78.14;99832.63;5138670;27;20035;-63
2023/05/14 07:52:33;;;;;;;1.13;1.02;;;;;;;12.39;78.02;99840.28;5138591;27;20043;-62
2023/05/14 07:55:04;;;;;;;1.00;0.90;;;;;;;12.39;77.76;99835.16;5138872;27;20066;-62
2023/05/14 07:57:33;;;;;;;1.52;1.42;;;;;;;12.41;78.03;99833.44;5138466;27;20047;-61
2023/05/14 08:00:02;;;;;;;0.85;0.63;;;;;;;12.41;78.38;99828.31;5138450;27;20043;-62
2023/05/14 08:02:39;;;;;;;1.75;1.63;;;;;;;12.45;78.48;99830.84;5138773;27;20450;-62
2023/05/14 08:05:09;;;;;;;0.98;0.82;;;;;;;12.49;78.50;99827.41;5138325;27;20042;-62
2023/05/14 08:07:38;;;;;;;;;;;;;;;12.53;78.59;99838.47;5138792;27;20043;-61
2023/05/14 08:10:09;;;;;;;1.13;1.02;;;;;;;12.53;78.63;99835.91;5138048;27;19923;-63
2023/05/14 08:12:38;;;;;;;1.30;1.20;;;;;;;12.55;78.81;99829.06;5138274;27;20042;-62
2023/05/14 08:15:08;;;;;;;1.57;1.00;;;;;;;12.63;78.55;99827.31;5138352;27;20525;-63
2023/05/14 08:17:37;;;;;;;1.77;1.02;;;;;;;12.69;78.53;99824.75;5138397;27;20286;-63
2023/05/14 08:20:08;;;;;;;0.97;0.90;;;;;;;12.75;78.64;99829.81;5138257;27;20046;-61
2023/05/14 08:22:37;;;;;;;0.95;0.93;;;;;;;12.77;78.28;99822.94;5137987;27;20043;-62
2023/05/14 08:25:08;;;;;;;0.93;0.87;;;;;;;12.81;78.25;99827.22;5138212;27;20043;-62
2023/05/14 08:27:37;;;;;;;1.00;0.90;;;;;;;12.76;77.86;99805.91;5137846;27;20055;-63
2023/05/14 08:30:07;;;;;;;0.70;0.70;;;;;;;12.85;77.86;99810.09;5138090;27;20516;-62
2023/05/14 08:32:38;;;;;;;0.60;0.60;;;;;;;12.90;77.45;99808.34;5138238;27;20047;-61
2023/05/14 08:35:07;;;;;;;1.60;1.50;;;;;;;12.96;77.20;99809.13;5138054;27;20471;-62
2023/05/14 08:37:36;;;;;;;2.03;1.55;;;;;;;12.99;76.90;99808.25;5137428;27;20059;-62
2023/05/14 08:40:07;;;;;;;1.15;1.08;;;;;;;13.09;76.35;99818.47;5137586;27;20074;-62
2023/05/14 08:42:40;;;;;;;1.83;1.25;;;;;;;13.16;76.07;99811.56;5137615;27;20052;-62
2023/05/14 08:45:14;;;;;;;3.67;2.20;;;;;;;13.19;75.62;99812.41;5137816;27;20047;-62
2023/05/14 08:47:45;;;;;;;1.60;1.08;;;;;;;13.22;75.07;99802.09;5137587;27;20085;-62
2023/05/14 08:50:15;;;;;;;1.10;1.00;;;;;;;13.29;74.72;99796.03;5137349;27;20147;-62
2023/05/14 08:52:44;;;;;;;1.27;1.02;;;;;;;13.32;74.30;99783.22;5137495;27;20492;-63
2023/05/14 08:55:14;;;;;;;1.42;0.93;;;;;;;13.40;74.18;99771.16;5119364;27;20043;-63
2023/05/14 08:57:44;;;;;;;;;;;;;;;13.46;73.70;99767.66;5137985;27;20497;-63
2023/05/14 09:00:14;;;;;;;0.80;0.80;;;;;;;13.49;73.45;99764.22;5137079;27;20280;-62
2023/05/14 09:02:45;;;;;;;1.33;1.13;;;;;;;13.56;73.56;99760.72;5137526;27;20047;-62
2023/05/14 09:05:15;;;;;;;0.60;0.60;;;;;;;13.62;73.72;99760.66;5137297;27;20044;-62
2023/05/14 09:07:44;;;;;;;1.77;1.40;;;;;;;13.70;74.44;99764.00;5137116;27;20126;-62
2023/05/14 09:10:14;;;;;;;0.65;0.65;;;;;;;13.77;74.72;99765.63;5136120;27;20066;-61
2023/05/14 09:12:44;;;;;;;0.80;0.80;;;;;;;13.82;74.95;99769.81;5137115;27;20423;-62
2023/05/14 09:15:13;;;;;;;0.90;0.90;;;;;;;13.84;75.24;99772.38;5135568;27;20039;-62
2023/05/14 09:17:43;;;;;;;0.90;0.85;;;;;;;13.84;74.83;99759.53;5135981;27;20561;-62
2023/05/14 09:20:13;;;;;;;1.02;1.02;;;;;;;13.90;74.36;99751.75;5136177;27;20515;-62
2023/05/14 09:22:42;;;;;;;;;;;;;;;13.99;74.24;99751.63;5138138;27;20100;-62
2023/05/14 09:25:12;;;;;;;0.60;0.60;;;;;;;13.95;72.68;99755.09;5137033;27;20306;-62
2023/05/14 09:27:41;;;;;;;0.98;0.80;;;;;;;13.98;71.82;99752.50;5136707;27;20055;-63
2023/05/14 09:30:13;;;;;;;1.38;0.82;;;;;;;13.96;71.31;99747.38;5136557;27;20134;-62
2023/05/14 09:32:44;;;;;;;0.98;0.95;;;;;;;14.04;71.31;99754.97;5136934;27;20377;-62
2023/05/14 09:35:17;;;;;;;1.15;1.05;;;;;;;14.12;71.25;99748.03;5136889;27;20051;-62
2023/05/14 09:37:48;;;;;;;1.35;1.08;;;;;;;14.15;70.83;99750.56;5136399;27;20492;-63
2023/05/14 09:40:21;;;;;;;1.30;1.20;;;;;;;14.17;70.65;99751.38;5136865;27;20035;-64
2023/05/14 09:42:51;;;;;;;0.75;0.75;;;;;;;14.15;70.58;99744.59;5136716;27;20143;-62
2023/05/14 09:45:21;;;;;;;1.20;1.10;;;;;;;14.22;70.75;99744.47;5136800;27;20043;-62
2023/05/14 09:47:50;;;;;;;0.80;0.80;;;;;;;14.20;70.49;99745.38;5136725;27;20454;-63
2023/05/14 09:50:19;;;;;;;0.47;0.47;;;;;;;14.24;70.48;99750.44;5136441;27;20043;-62
2023/05/14 09:52:48;;;;;;;1.30;1.15;;;;;;;14.26;70.07;99740.97;5136255;27;20049;-62
2023/05/14 09:55:17;;;;;;;0.38;0.38;;;;;;;14.28;69.63;99744.38;5136182;27;20465;-61
2023/05/14 09:57:46;;;;;;;0.50;0.50;;;;;;;14.27;69.77;99736.69;5136481;27;20047;-61
2023/05/14 10:00:16;;;;;;;0.80;0.80;;;;;;;14.23;69.63;99735.06;5136136;27;20094;-62
2023/05/14 10:02:48;;;;;;;0.50;0.50;;;;;;;14.22;70.26;99723.94;5136062;27;20043;-62
2023/05/14 10:05:18;;;;;;;0.73;0.65;;;;;;;14.27;70.17;99724.72;5136035;27;20053;-61
2023/05/14 10:07:49;;;;;;;1.77;1.20;;;;;;;14.33;70.28;99716.94;5135832;27;20058;-61
2023/05/14 10:10:21;;;;;;;0.70;0.70;;;;;;;14.31;70.59;99718.69;5134895;27;20043;-61
2023/05/14 10:12:53;;;;;;;5.25;0.85;;;;;;;14.31;70.49;99720.41;5135920;27;20043;-61
2023/05/14 10:15:27;;;;;;;0.77;0.77;;;;;;;14.39;70.73;99710.88;5135809;27;20051;-61
2023/05/14 10:18:01;;;;;;;0.40;0.40;;;;;;;14.47;71.33;99715.00;5135887;27;20130;-61
2023/05/14 10:20:31;;;;;;;0.90;0.90;;;;;;;14.50;71.24;99714.09;5135649;27;20063;-61
2023/05/14 10:23:01;;;;;;;0.80;0.60;;;;;;;14.49;70.86;99713.25;5135630;27;20058;-62
2023/05/14 10:25:30;;;;;;;;;;;;;;;14.49;71.28;99717.56;5136211;27;20043;-62
2023/05/14 10:27:59;;;;;;;0.52;0.52;;;;;;;14.46;70.96;99715.91;5135863;27;20296;-63
2023/05/14 10:30:27;;;;;;;2.30;1.17;;;;;;;14.49;71.23;99708.13;5135472;27;20051;-61
2023/05/14 10:33:11;;;;;;;0.63;0.63;;;;;;;14.45;71.42;99701.34;5135734;27;20271;-61
2023/05/14 10:35:51;;;;;;;0.60;0.60;;;;;;;14.47;71.41;99704.72;5135763;27;20408;-61
2023/05/14 10:38:25;;;;;;;0.50;0.50;;;;;;;14.31;71.83;99687.88;5135215;27;20099;-61
2023/05/14 10:40:58;;;;;;;0.88;0.80;;;;;;;14.42;71.55;99688.53;5135706;27;20039;-61
2023/05/14 10:43:29;;;;;;;0.77;0.77;;;;;;;14.42;71.58;99691.13;5135536;27;20050;-61
2023/05/14 10:46:01;;;;;;;2.22;1.30;;;;;;;14.42;72.32;99690.28;5135272;27;20054;-61
2023/05/14 10:48:32;;;;;;;0.80;0.80;;;;;;;14.43;73.02;99677.41;5135230;27;20047;-61
2023/05/14 10:51:02;;;;;;;0.65;0.65;;;;;;;14.42;72.41;99670.56;5135017;27;20047;-61
2023/05/14 10:53:35;;;;;;;0.50;0.50;;;;;;;14.40;73.17;99664.63;5135405;27;20046;-61
2023/05/14 10:56:07;;;;;;;0.60;0.60;;;;;;;14.54;72.70;99664.41;5135350;27;20074;-62
2023/05/14 10:58:37;;;;;;;1.38;1.05;;;;;;;14.58;72.82;99664.31;5134982;27;20057;-61
2023/05/14 11:01:07;;;;;;;0.60;0.60;;;;;;;14.58;72.60;99655.75;5135540;27;20067;-61
2023/05/14 11:03:43;;;;;;;0.80;0.80;;;;;;;14.66;73.07;99654.75;5116943;27;20392;-61
2023/05/14 11:06:14;;;;;;;0.80;0.80;;;;;;;14.68;72.84;99663.25;5135166;27;20053;-62
2023/05/14 11:08:45;;;;;;;0.52;0.52;;;;;;;14.63;72.66;99641.97;5134819;27;20043;-62
2023/05/14 11:11:14;;;;;;;1.25;1.15;;;;;;;14.78;73.16;99643.41;5135122;27;20035;-60
2023/05/14 11:13:45;;;;;;;1.13;1.02;;;;;;;14.86;73.15;99648.41;5134432;27;20035;-61
2023/05/14 11:16:17;;;;;;;1.30;1.20;;;;;;;14.86;73.08;99651.81;5134802;27;20043;-61
2023/05/14 11:19:02;;;;;;;1.05;0.95;;;;;;;14.80;73.48;99645.97;5134768;27;20059;-61
2023/05/14 11:21:31;;;;;;;0.68;0.68;;;;;;;14.88;73.67;99644.06;5134303;27;20493;-60
2023/05/14 11:24:02;;;;;;;0.47;0.47;;;;;;;14.89;73.62;99635.50;5134727;27;20047;-61
2023/05/14 11:26:33;;;;;;;0.60;0.60;;;;;;;14.94;73.76;99646.53;5134590;27;20058;-60
2023/05/14 11:29:02;;;;;;;0.50;0.50;;;;;;;14.97;74.20;99636.22;5134891;27;20047;-61
2023/05/14 11:31:30;;;;;;;0.63;0.63;;;;;;;14.89;73.91;99640.63;5134684;27;20027;-61
2023/05/14 11:34:02;;;;;;;0.47;0.45;;;;;;;14.87;73.71;99638.13;5135007;27;20129;-60
2023/05/14 11:36:31;;;;;;;0.70;0.70;;;;;;;14.88;74.10;99634.66;5116047;28;20054;-60
2023/05/14 11:39:00;;;;;;;2.13;0.55;;;;;;;14.89;73.45;99641.50;5134260;28;20043;-61
2023/05/14 11:41:30;;;;;;;0.60;0.60;;;;;;;14.81;73.30;99638.22;5134467;28;20039;-61
2023/05/14 11:43:59;;;;;;;0.52;0.52;;;;;;;14.76;73.46;99625.44;5134680;28;20381;-62
2023/05/14 11:46:29;;;;;;;1.38;0.93;;;;;;;14.71;73.77;99622.13;5134151;28;20046;-61